createdAt,value
2017-11-26T00:01:31.162Z,2.10
2017-11-26T00:03:33.836Z,2.10
2017-11-26T00:05:36.485Z,2.10
2017-11-26T00:07:39.128Z,2.10
2017-11-26T00:09:41.817Z,2.10
2017-11-26T00:11:44.460Z,2.10
2017-11-26T00:13:47.236Z,2.10
2017-11-26T00:15:49.928Z,2.10
2017-11-26T00:17:52.589Z,2.00
2017-11-26T00:19:55.267Z,2.00
2017-11-26T00:21:57.984Z,2.00
2017-11-26T00:24:00.726Z,2.10
2017-11-26T00:26:03.494Z,2.00
2017-11-26T00:28:06.167Z,2.00
2017-11-26T00:30:08.850Z,2.00
2017-11-26T00:32:11.495Z,2.00
2017-11-26T00:34:14.937Z,2.00
2017-11-26T00:36:17.605Z,2.00
2017-11-26T00:38:20.370Z,2.00
2017-11-26T00:40:23.069Z,2.10
2017-11-26T00:42:25.711Z,2.20
2017-11-26T00:44:28.411Z,2.30
2017-11-26T00:46:31.087Z,2.40
2017-11-26T00:48:33.758Z,2.40
2017-11-26T00:50:36.401Z,2.40
2017-11-26T00:52:39.852Z,2.40
2017-11-26T00:54:42.489Z,2.40
2017-11-26T00:56:45.140Z,2.50
2017-11-26T00:58:48.674Z,2.60
2017-11-26T01:00:51.358Z,2.60
2017-11-26T01:02:54.045Z,2.70
2017-11-26T01:04:56.710Z,2.80
2017-11-26T01:06:59.366Z,2.80
2017-11-26T01:09:02.005Z,2.80
2017-11-26T01:11:04.698Z,2.80
2017-11-26T01:13:08.123Z,2.90
2017-11-26T01:15:10.758Z,2.90
2017-11-26T01:17:14.309Z,2.90
2017-11-26T01:19:16.968Z,2.90
2017-11-26T01:21:19.619Z,2.80
2017-11-26T01:23:23.064Z,2.60
2017-11-26T01:25:25.712Z,2.60
2017-11-26T01:27:28.365Z,2.60
2017-11-26T01:29:31.086Z,2.50
2017-11-26T01:31:33.728Z,2.40
2017-11-26T01:33:36.366Z,2.30
2017-11-26T01:35:39.070Z,2.20
2017-11-26T01:37:41.733Z,2.20
2017-11-26T01:39:45.147Z,2.20
2017-11-26T01:41:47.840Z,2.10
2017-11-26T01:43:50.513Z,2.10
2017-11-26T01:45:53.197Z,2.10
2017-11-26T01:47:55.868Z,2.10
2017-11-26T01:49:58.518Z,2.10
2017-11-26T01:52:01.937Z,2.10
2017-11-26T01:54:04.633Z,2.10
2017-11-26T01:56:07.290Z,2.20
2017-11-26T01:58:09.958Z,2.30
2017-11-26T02:00:12.680Z,2.20
2017-11-26T02:02:15.380Z,2.10
2017-11-26T02:04:18.845Z,2.10
2017-11-26T02:06:21.537Z,2.10
2017-11-26T02:08:24.202Z,2.10
2017-11-26T02:10:26.859Z,2.10
2017-11-26T02:12:29.529Z,2.30
2017-11-26T02:14:32.185Z,2.40
2017-11-26T02:16:34.877Z,2.50
2017-11-26T02:18:37.584Z,2.50
2017-11-26T02:20:40.281Z,2.50
2017-11-26T02:22:43.750Z,2.60
2017-11-26T02:24:47.243Z,2.50
2017-11-26T02:26:49.946Z,2.50
2017-11-26T02:28:53.446Z,2.40
2017-11-26T02:30:56.932Z,2.40
2017-11-26T02:33:11.609Z,2.30
2017-11-26T02:35:24.883Z,2.30
2017-11-26T02:37:27.673Z,2.30
2017-11-26T02:39:30.375Z,2.30
2017-11-26T02:41:33.844Z,2.20
2017-11-26T02:43:36.589Z,2.20
2017-11-26T02:45:39.292Z,2.20
2017-11-26T02:47:41.990Z,2.20
2017-11-26T02:49:44.711Z,2.30
2017-11-26T02:51:47.646Z,2.40
2017-11-26T02:53:50.385Z,2.50
2017-11-26T02:55:53.301Z,2.50
2017-11-26T02:57:55.987Z,2.50
2017-11-26T02:59:58.722Z,2.40
2017-11-26T03:02:01.363Z,2.40
2017-11-26T03:04:04.768Z,2.30
2017-11-26T03:06:07.458Z,2.30
2017-11-26T03:08:10.107Z,2.30
2017-11-26T03:10:13.547Z,2.20
2017-11-26T03:12:16.237Z,2.20
2017-11-26T03:14:19.656Z,2.20
2017-11-26T03:16:22.337Z,2.20
2017-11-26T03:18:25.869Z,2.30
2017-11-26T03:20:28.555Z,2.30
2017-11-26T03:22:31.253Z,2.30
2017-11-26T03:24:33.920Z,2.20
2017-11-26T03:26:36.584Z,2.30
2017-11-26T03:28:39.268Z,2.30
2017-11-26T03:30:41.935Z,2.30
2017-11-26T03:32:44.616Z,2.40
2017-11-26T03:34:47.297Z,2.40
2017-11-26T03:36:49.930Z,2.40
2017-11-26T03:38:53.375Z,2.30
2017-11-26T03:40:56.086Z,2.30
2017-11-26T03:42:58.761Z,2.30
2017-11-26T03:45:02.205Z,2.30
2017-11-26T03:47:04.907Z,2.30
2017-11-26T03:49:07.589Z,2.20
2017-11-26T03:51:10.273Z,2.20
2017-11-26T03:53:12.986Z,2.20
2017-11-26T03:55:15.666Z,2.30
2017-11-26T03:57:18.353Z,2.20
2017-11-26T03:59:21.053Z,2.10
2017-11-26T04:01:23.798Z,2.10
2017-11-26T04:03:26.484Z,2.10
2017-11-26T04:05:29.264Z,2.20
2017-11-26T04:07:31.914Z,2.20
2017-11-26T04:09:34.600Z,2.30
2017-11-26T04:11:37.263Z,2.40
2017-11-26T04:13:40.694Z,2.50
2017-11-26T04:15:43.465Z,2.40
2017-11-26T04:17:46.223Z,2.50
2017-11-26T04:19:48.897Z,2.50
2017-11-26T04:21:52.312Z,2.40
2017-11-26T04:23:55.015Z,2.40
2017-11-26T04:25:57.712Z,2.40
2017-11-26T04:28:00.378Z,2.30
2017-11-26T04:30:03.256Z,2.20
2017-11-26T04:32:05.913Z,2.20
2017-11-26T04:34:08.588Z,2.20
2017-11-26T04:36:11.351Z,2.20
2017-11-26T04:38:14.230Z,2.20
2017-11-26T04:40:16.886Z,2.10
2017-11-26T04:42:20.312Z,2.20
2017-11-26T04:44:23.182Z,2.10
2017-11-26T04:46:25.840Z,2.10
2017-11-26T04:48:28.540Z,2.10
2017-11-26T04:50:31.330Z,2.10
2017-11-26T04:52:33.998Z,2.10
2017-11-26T04:54:36.691Z,2.10
2017-11-26T04:56:39.350Z,2.20
2017-11-26T04:58:42.148Z,2.30
2017-11-26T05:00:44.881Z,2.20
2017-11-26T05:02:47.580Z,2.20
2017-11-26T05:04:50.264Z,2.20
2017-11-26T05:06:52.948Z,2.20
2017-11-26T05:08:55.587Z,2.20
2017-11-26T05:10:58.239Z,2.20
2017-11-26T05:13:01.683Z,2.20
2017-11-26T05:15:04.358Z,2.20
2017-11-26T05:17:07.014Z,2.10
2017-11-26T05:19:09.709Z,2.10
2017-11-26T05:21:12.390Z,2.10
2017-11-26T05:23:15.062Z,2.10
2017-11-26T05:25:17.791Z,2.10
2017-11-26T05:27:21.222Z,2.10
2017-11-26T05:29:23.875Z,2.00
2017-11-26T05:31:27.340Z,2.10
2017-11-26T05:33:29.996Z,2.00
2017-11-26T05:35:32.748Z,2.10
2017-11-26T05:37:35.526Z,2.10
2017-11-26T05:39:38.200Z,2.10
2017-11-26T05:41:40.918Z,2.10
2017-11-26T05:43:43.566Z,2.10
2017-11-26T05:45:46.335Z,2.10
2017-11-26T05:47:49.037Z,2.10
2017-11-26T05:49:51.696Z,2.20
2017-11-26T05:51:54.405Z,2.20
2017-11-26T05:53:57.073Z,2.20
2017-11-26T05:55:59.717Z,2.20
2017-11-26T05:58:02.392Z,2.20
2017-11-26T06:00:05.267Z,2.20
2017-11-26T06:02:07.967Z,2.30
2017-11-26T06:04:10.656Z,2.30
2017-11-26T06:06:14.112Z,2.40
2017-11-26T06:08:16.759Z,2.30
2017-11-26T06:10:20.213Z,2.40
2017-11-26T06:12:22.905Z,2.40
2017-11-26T06:14:25.635Z,2.40
2017-11-26T06:16:28.547Z,2.50
2017-11-26T06:18:31.227Z,2.50
2017-11-26T06:20:33.915Z,2.60
2017-11-26T06:22:36.591Z,2.60
2017-11-26T06:24:39.333Z,2.60
2017-11-26T06:26:41.990Z,2.50
2017-11-26T06:28:44.707Z,2.50
2017-11-26T06:30:47.536Z,2.50
2017-11-26T06:32:50.978Z,2.60
2017-11-26T06:34:53.659Z,2.50
2017-11-26T06:36:56.311Z,2.50
2017-11-26T06:38:59.293Z,2.60
2017-11-26T06:41:02.279Z,2.60
2017-11-26T06:43:05.088Z,2.60
2017-11-26T06:45:07.789Z,2.60
2017-11-26T06:47:10.513Z,2.60
2017-11-26T06:49:13.315Z,2.60
2017-11-26T06:51:16.081Z,2.60
2017-11-26T06:53:18.771Z,2.70
2017-11-26T06:55:21.564Z,2.70
2017-11-26T06:57:24.279Z,2.60
2017-11-26T06:59:27.778Z,2.70
2017-11-26T07:01:30.471Z,2.70
2017-11-26T07:03:33.172Z,2.70
2017-11-26T07:05:35.967Z,2.70
2017-11-26T07:07:38.768Z,2.70
2017-11-26T07:09:41.490Z,2.70
2017-11-26T07:11:44.203Z,2.70
2017-11-26T07:13:47.869Z,2.70
2017-11-26T07:15:50.708Z,2.70
2017-11-26T07:17:54.246Z,2.80
2017-11-26T07:19:57.127Z,2.80
2017-11-26T07:21:59.813Z,2.80
2017-11-26T07:24:02.510Z,2.80
2017-11-26T07:26:05.204Z,2.80
2017-11-26T07:28:08.625Z,2.90
2017-11-26T07:30:11.341Z,2.90
2017-11-26T07:32:15.444Z,2.90
2017-11-26T07:34:18.121Z,2.90
2017-11-26T07:36:20.801Z,2.90
2017-11-26T07:38:23.446Z,2.90
2017-11-26T07:40:26.095Z,2.90
2017-11-26T07:42:28.813Z,2.90
2017-11-26T07:44:31.489Z,2.90
2017-11-26T07:46:34.148Z,2.90
2017-11-26T07:48:36.862Z,2.90
2017-11-26T07:50:39.628Z,2.90
2017-11-26T07:52:42.304Z,2.90
2017-11-26T07:54:45.008Z,2.90
2017-11-26T07:56:47.659Z,2.90
2017-11-26T07:58:50.324Z,3.00
2017-11-26T08:00:53.232Z,3.00
2017-11-26T08:02:55.895Z,3.00
2017-11-26T08:04:58.564Z,3.00
2017-11-26T08:07:01.340Z,3.00
2017-11-26T08:09:04.037Z,3.10
2017-11-26T08:11:06.709Z,3.00
2017-11-26T08:13:09.382Z,3.10
2017-11-26T08:15:12.151Z,3.10
2017-11-26T08:17:14.819Z,3.10
2017-11-26T08:19:17.482Z,3.10
2017-11-26T08:21:20.156Z,3.20
2017-11-26T08:23:22.860Z,3.20
2017-11-26T08:25:25.552Z,3.20
2017-11-26T08:27:28.195Z,3.20
2017-11-26T08:29:30.864Z,3.20
2017-11-26T08:31:33.682Z,3.20
2017-11-26T08:33:36.343Z,3.20
2017-11-26T08:35:38.998Z,3.30
2017-11-26T08:37:41.696Z,3.20
2017-11-26T08:39:44.500Z,3.20
2017-11-26T08:41:47.157Z,3.30
2017-11-26T08:43:49.843Z,3.40
2017-11-26T08:45:52.635Z,3.30
2017-11-26T08:47:55.301Z,3.30
2017-11-26T08:49:58.018Z,3.40
2017-11-26T08:52:01.440Z,3.40
2017-11-26T08:54:04.098Z,3.40
2017-11-26T08:56:06.798Z,3.40
2017-11-26T08:58:09.544Z,3.40
2017-11-26T09:00:12.979Z,3.50
2017-11-26T09:02:15.709Z,3.50
2017-11-26T09:04:19.177Z,3.50
2017-11-26T09:09:01.417Z,3.50
2017-11-26T09:11:04.100Z,3.50
2017-11-26T09:13:07.564Z,3.60
2017-11-26T09:15:10.316Z,3.60
2017-11-26T09:17:12.988Z,3.60
2017-11-26T09:19:15.678Z,3.70
2017-11-26T09:21:18.343Z,3.70
2017-11-26T09:23:21.011Z,3.70
2017-11-26T09:25:23.687Z,3.70
2017-11-26T09:27:26.356Z,3.80
2017-11-26T09:29:29.000Z,3.80
2017-11-26T09:31:32.452Z,3.90
2017-11-26T09:33:35.095Z,3.90
2017-11-26T09:35:37.941Z,3.90
2017-11-26T09:37:40.636Z,3.90
2017-11-26T09:39:44.072Z,4.00
2017-11-26T09:41:47.930Z,4.00
2017-11-26T09:43:50.708Z,3.90
2017-11-26T09:45:54.179Z,4.10
2017-11-26T09:47:56.957Z,4.10
2017-11-26T09:49:59.689Z,4.20
2017-11-26T09:52:02.368Z,4.10
2017-11-26T09:54:05.074Z,4.20
2017-11-26T09:56:07.820Z,4.20
2017-11-26T09:58:10.512Z,4.20
2017-11-26T10:00:13.179Z,4.20
2017-11-26T10:02:15.858Z,4.20
2017-11-26T10:04:18.521Z,4.20
2017-11-26T10:06:21.233Z,4.30
2017-11-26T10:08:24.086Z,4.30
2017-11-26T10:10:26.749Z,4.40
2017-11-26T10:12:29.423Z,4.40
2017-11-26T10:14:32.220Z,4.40
2017-11-26T10:16:34.879Z,4.50
2017-11-26T10:18:37.557Z,4.40
2017-11-26T10:20:40.290Z,4.50
2017-11-26T10:22:43.018Z,4.50
2017-11-26T10:24:45.797Z,4.40
2017-11-26T10:26:48.583Z,4.50
2017-11-26T10:28:51.353Z,4.60
2017-11-26T10:30:54.047Z,4.60
2017-11-26T10:32:56.725Z,4.60
2017-11-26T10:34:59.412Z,4.70
2017-11-26T10:37:02.100Z,4.60
2017-11-26T10:39:04.806Z,4.60
2017-11-26T10:41:08.217Z,4.60
2017-11-26T10:43:11.009Z,4.60
2017-11-26T10:45:13.704Z,4.60
2017-11-26T10:47:16.407Z,4.70
2017-11-26T10:49:19.123Z,4.60
2017-11-26T10:51:21.796Z,4.70
2017-11-26T10:53:24.536Z,4.60
2017-11-26T10:55:27.268Z,4.60
2017-11-26T10:57:29.959Z,4.70
2017-11-26T10:59:32.678Z,4.60
2017-11-26T11:01:35.367Z,4.60
2017-11-26T11:03:39.950Z,4.80
2017-11-26T11:05:42.679Z,4.80
2017-11-26T11:07:46.193Z,4.90
2017-11-26T11:09:48.971Z,4.90
2017-11-26T11:11:51.759Z,5.00
2017-11-26T11:13:54.452Z,5.20
2017-11-26T11:15:57.146Z,5.30
2017-11-26T11:17:59.873Z,5.40
2017-11-26T11:20:02.664Z,5.50
2017-11-26T11:22:05.346Z,5.70
2017-11-26T11:24:08.295Z,5.80
2017-11-26T11:26:10.949Z,5.80
2017-11-26T11:28:13.743Z,5.70
2017-11-26T11:30:17.219Z,5.80
2017-11-26T11:32:19.880Z,5.70
2017-11-26T11:34:22.555Z,6.30
2017-11-26T11:36:25.230Z,6.50
2017-11-26T11:38:28.074Z,6.70
2017-11-26T11:40:30.714Z,6.50
2017-11-26T11:42:34.178Z,6.40
2017-11-26T11:44:36.832Z,6.40
2017-11-26T11:46:39.519Z,6.50
2017-11-26T11:48:42.242Z,6.30
2017-11-26T11:50:45.796Z,6.00
2017-11-26T11:52:48.505Z,6.00
2017-11-26T11:54:57.824Z,5.90
2017-11-26T11:57:01.030Z,6.00
2017-11-26T11:59:04.389Z,6.00
2017-11-26T12:01:07.123Z,5.80
2017-11-26T12:03:09.857Z,5.90
2017-11-26T12:05:12.546Z,6.00
2017-11-26T12:07:15.250Z,6.00
2017-11-26T12:09:18.966Z,5.90
2017-11-26T12:11:21.914Z,5.90
2017-11-26T12:13:25.394Z,5.70
2017-11-26T12:15:28.106Z,5.70
2017-11-26T12:17:30.996Z,5.70
2017-11-26T12:19:33.811Z,5.70
2017-11-26T12:21:36.672Z,5.70
2017-11-26T12:23:40.393Z,5.60
2017-11-26T12:25:43.134Z,5.70
2017-11-26T12:27:45.851Z,5.70
2017-11-26T12:29:48.549Z,5.60
2017-11-26T12:31:51.304Z,5.50
2017-11-26T12:33:54.082Z,5.40
2017-11-26T12:35:56.936Z,5.40
2017-11-26T12:37:59.793Z,5.40
2017-11-26T12:40:02.619Z,5.40
2017-11-26T12:42:05.377Z,5.40
2017-11-26T12:44:08.114Z,5.50
2017-11-26T12:46:11.579Z,5.60
2017-11-26T12:48:14.429Z,5.60
2017-11-26T12:50:17.282Z,5.60
2017-11-26T12:52:20.727Z,5.60
2017-11-26T12:54:23.682Z,5.50
2017-11-26T12:56:26.557Z,5.60
2017-11-26T12:58:30.035Z,5.60
2017-11-26T13:00:32.743Z,5.70
2017-11-26T13:02:35.483Z,5.70
2017-11-26T13:04:39.109Z,5.70
2017-11-26T13:06:41.817Z,5.70
2017-11-26T13:08:45.669Z,5.70
2017-11-26T13:10:49.151Z,5.70
2017-11-26T13:12:52.770Z,5.70
2017-11-26T13:14:55.875Z,5.70
2017-11-26T13:16:58.659Z,5.70
2017-11-26T13:19:01.429Z,5.90
2017-11-26T13:21:04.158Z,5.90
2017-11-26T13:23:08.424Z,5.90
2017-11-26T13:25:12.634Z,5.90
2017-11-26T13:27:15.511Z,5.90
2017-11-26T13:29:18.285Z,5.90
2017-11-26T13:31:21.082Z,6.00
2017-11-26T13:33:23.900Z,6.10
2017-11-26T13:35:28.071Z,6.10
2017-11-26T13:37:30.840Z,6.10
2017-11-26T13:39:33.617Z,6.00
2017-11-26T13:41:36.315Z,6.00
2017-11-26T13:43:39.094Z,6.00
2017-11-26T13:45:41.866Z,5.90
2017-11-26T13:47:44.672Z,5.90
2017-11-26T13:49:47.438Z,5.90
2017-11-26T13:51:50.199Z,5.90
2017-11-26T13:53:53.008Z,5.90
2017-11-26T13:55:56.076Z,5.90
2017-11-26T13:57:58.869Z,5.80
2017-11-26T14:00:02.667Z,5.90
2017-11-26T14:02:05.533Z,5.90
2017-11-26T14:04:08.315Z,6.00
2017-11-26T14:06:11.010Z,5.90
2017-11-26T14:08:13.744Z,5.90
2017-11-26T14:10:16.514Z,5.80
2017-11-26T14:12:19.205Z,5.80
2017-11-26T14:14:21.947Z,5.70
2017-11-26T14:16:25.418Z,5.60
2017-11-26T14:18:28.117Z,5.60
2017-11-26T14:20:31.601Z,5.40
2017-11-26T14:22:35.078Z,5.40
2017-11-26T14:24:37.785Z,5.40
2017-11-26T14:26:42.354Z,5.40
2017-11-26T14:28:45.037Z,5.40
2017-11-26T14:30:48.598Z,5.60
2017-11-26T14:32:51.440Z,5.60
2017-11-26T14:34:54.151Z,5.60
2017-11-26T14:36:56.982Z,5.60
2017-11-26T14:38:59.884Z,5.50
2017-11-26T14:41:03.521Z,5.50
2017-11-26T14:43:06.254Z,5.50
2017-11-26T14:45:08.985Z,5.40
2017-11-26T14:47:11.822Z,5.40
2017-11-26T14:49:15.383Z,5.40
2017-11-26T14:51:18.086Z,5.40
2017-11-26T14:53:21.415Z,5.30
2017-11-26T14:55:24.369Z,5.10
2017-11-26T14:57:29.524Z,4.90
2017-11-26T14:59:32.346Z,4.90
2017-11-26T15:01:35.045Z,4.80
2017-11-26T15:03:38.873Z,4.70
2017-11-26T15:05:42.440Z,4.70
2017-11-26T15:07:45.130Z,4.70
2017-11-26T15:09:48.688Z,4.50
2017-11-26T15:11:51.573Z,4.50
2017-11-26T15:13:54.297Z,4.40
2017-11-26T15:15:57.806Z,4.40
2017-11-26T15:18:00.500Z,4.50
2017-11-26T15:20:03.218Z,4.40
2017-11-26T15:22:05.978Z,4.40
2017-11-26T15:24:08.691Z,4.40
2017-11-26T15:26:13.318Z,4.30
2017-11-26T15:28:16.815Z,4.20
2017-11-26T15:30:20.283Z,4.20
2017-11-26T15:32:23.053Z,4.20
2017-11-26T15:34:25.777Z,4.20
2017-11-26T15:36:29.265Z,4.20
2017-11-26T15:38:32.902Z,4.20
2017-11-26T15:40:35.631Z,4.10
2017-11-26T15:42:39.083Z,4.20
2017-11-26T15:44:41.974Z,4.20
2017-11-26T15:46:44.679Z,4.10
2017-11-26T15:48:47.366Z,4.10
2017-11-26T15:50:50.939Z,4.00
2017-11-26T15:52:53.643Z,4.00
2017-11-26T15:54:57.170Z,4.00
2017-11-26T15:56:59.887Z,4.00
2017-11-26T15:59:02.588Z,4.10
2017-11-26T16:01:06.061Z,3.90
2017-11-26T16:03:08.808Z,3.90
2017-11-26T16:05:11.496Z,3.90
2017-11-26T16:07:14.221Z,4.00
2017-11-26T16:09:17.716Z,3.90
2017-11-26T16:11:21.362Z,4.00
2017-11-26T16:13:24.050Z,3.90
2017-11-26T16:15:27.246Z,3.90
2017-11-26T16:17:29.936Z,3.90
2017-11-26T16:19:32.765Z,3.90
2017-11-26T16:21:35.497Z,3.90
2017-11-26T16:23:38.295Z,4.00
2017-11-26T16:25:41.754Z,3.90
2017-11-26T16:27:45.314Z,4.00
2017-11-26T16:29:48.118Z,4.00
2017-11-26T16:31:50.779Z,4.10
2017-11-26T16:33:53.519Z,4.10
2017-11-26T16:35:57.047Z,4.20
2017-11-26T16:37:59.945Z,4.20
2017-11-26T16:40:02.677Z,4.20
2017-11-26T16:42:06.164Z,4.20
2017-11-26T16:44:09.630Z,4.20
2017-11-26T16:46:12.364Z,4.20
2017-11-26T16:48:15.067Z,4.20
2017-11-26T16:50:17.775Z,4.00
2017-11-26T16:52:21.610Z,3.90
2017-11-26T16:54:24.328Z,3.90
2017-11-26T16:56:27.192Z,3.80
2017-11-26T16:58:29.933Z,3.70
2017-11-26T17:00:33.526Z,3.70
2017-11-26T17:02:37.103Z,3.80
2017-11-26T17:04:39.835Z,3.80
2017-11-26T17:06:42.646Z,3.80
2017-11-26T17:08:45.396Z,3.80
2017-11-26T17:10:48.225Z,3.80
2017-11-26T17:12:51.990Z,3.80
2017-11-26T17:14:54.688Z,3.80
2017-11-26T17:16:57.677Z,3.90
2017-11-26T17:19:00.384Z,3.90
2017-11-26T17:21:03.206Z,3.90
2017-11-26T17:23:05.924Z,4.00
2017-11-26T17:25:09.519Z,4.20
2017-11-26T17:27:12.230Z,4.20
2017-11-26T17:29:15.035Z,4.30
2017-11-26T17:31:17.896Z,4.30
2017-11-26T17:33:20.616Z,4.40
2017-11-26T17:35:23.635Z,4.40
2017-11-26T17:37:27.125Z,4.40
2017-11-26T17:39:30.700Z,4.20
2017-11-26T17:41:33.604Z,4.20
2017-11-26T17:43:37.135Z,4.00
2017-11-26T17:45:39.865Z,3.90
2017-11-26T17:47:43.442Z,4.00
2017-11-26T17:49:46.174Z,4.00
2017-11-26T17:51:48.871Z,3.90
2017-11-26T17:53:51.549Z,4.00
2017-11-26T17:55:54.420Z,3.90
2017-11-26T17:57:57.229Z,3.80
2017-11-26T17:59:59.989Z,3.80
2017-11-26T18:02:02.730Z,3.70
2017-11-26T18:04:05.404Z,3.80
2017-11-26T18:06:08.956Z,3.80
2017-11-26T18:08:11.697Z,3.80
2017-11-26T18:10:14.516Z,3.80
2017-11-26T18:12:17.240Z,3.80
2017-11-26T18:14:20.111Z,3.80
2017-11-26T18:16:23.538Z,3.80
2017-11-26T18:18:26.205Z,3.80
2017-11-26T18:20:31.076Z,3.80
2017-11-26T18:22:33.733Z,3.80
2017-11-26T18:24:36.647Z,3.80
2017-11-26T18:26:39.319Z,3.80
2017-11-26T18:28:41.984Z,3.90
2017-11-26T18:30:44.667Z,4.00
2017-11-26T18:32:47.818Z,3.90
2017-11-26T18:34:50.588Z,4.00
2017-11-26T18:36:53.258Z,3.90
2017-11-26T18:38:55.929Z,3.90
2017-11-26T18:40:58.733Z,3.80
2017-11-26T18:43:01.417Z,3.80
2017-11-26T18:45:04.116Z,3.70
2017-11-26T18:47:07.114Z,3.70
2017-11-26T18:49:10.798Z,3.80
2017-11-26T18:51:13.620Z,3.80
2017-11-26T18:53:16.443Z,3.80
2017-11-26T18:55:20.497Z,3.70
2017-11-26T18:57:23.325Z,3.60
2017-11-26T18:59:26.223Z,3.60
2017-11-26T19:01:28.938Z,3.70
2017-11-26T19:03:31.705Z,3.70
2017-11-26T19:05:35.167Z,3.60
2017-11-26T19:07:38.244Z,3.60
2017-11-26T19:09:40.929Z,3.60
2017-11-26T19:11:44.849Z,3.50
2017-11-26T19:13:47.576Z,3.50
2017-11-26T19:15:50.292Z,3.50
2017-11-26T19:17:54.479Z,3.50
2017-11-26T19:19:57.421Z,3.50
2017-11-26T19:22:01.053Z,3.50
2017-11-26T19:24:03.901Z,3.50
2017-11-26T19:26:09.289Z,3.50
2017-11-26T19:28:11.961Z,3.50
2017-11-26T19:30:15.947Z,3.60
2017-11-26T19:32:18.634Z,3.80
2017-11-26T19:34:21.329Z,3.80
2017-11-26T19:36:24.346Z,3.80
2017-11-26T19:38:27.754Z,3.90
2017-11-26T19:40:31.175Z,3.90
2017-11-26T19:42:33.913Z,3.90
2017-11-26T19:44:37.364Z,3.80
2017-11-26T19:46:40.213Z,3.80
2017-11-26T19:48:42.944Z,3.80
2017-11-26T19:50:45.674Z,3.80
2017-11-26T19:52:48.381Z,3.80
2017-11-26T19:54:51.203Z,3.80
2017-11-26T19:56:54.671Z,3.80
2017-11-26T19:58:59.499Z,3.80
2017-11-26T20:01:02.220Z,3.80
2017-11-26T20:03:05.221Z,3.80
2017-11-26T20:05:08.934Z,3.80
2017-11-26T20:07:11.727Z,3.70
2017-11-26T20:09:14.783Z,3.70
2017-11-26T20:11:18.574Z,3.60
2017-11-26T20:13:21.769Z,3.50
2017-11-26T20:15:25.690Z,3.50
2017-11-26T20:17:28.397Z,3.50
2017-11-26T20:19:31.102Z,3.50
2017-11-26T20:21:34.524Z,3.50
2017-11-26T20:23:37.297Z,3.50
2017-11-26T20:25:40.086Z,3.50
2017-11-26T20:27:42.857Z,3.50
2017-11-26T20:29:45.541Z,3.60
2017-11-26T20:31:48.204Z,3.50
2017-11-26T20:33:50.905Z,3.50
2017-11-26T20:35:53.585Z,3.50
2017-11-26T20:37:56.351Z,3.50
2017-11-26T20:39:59.119Z,3.60
2017-11-26T20:42:01.820Z,3.60
2017-11-26T20:44:04.470Z,3.50
2017-11-26T20:46:07.273Z,3.40
2017-11-26T20:48:09.972Z,3.30
2017-11-26T20:50:12.708Z,3.40
2017-11-26T20:52:15.385Z,3.50
2017-11-26T20:54:18.126Z,3.40
2017-11-26T20:56:21.549Z,3.40
2017-11-26T20:58:24.332Z,3.40
2017-11-26T21:00:27.108Z,3.40
2017-11-26T21:02:29.784Z,3.40
2017-11-26T21:04:32.570Z,3.30
2017-11-26T21:06:35.369Z,3.40
2017-11-26T21:08:38.022Z,3.40
2017-11-26T21:10:40.702Z,3.50
2017-11-26T21:12:43.376Z,3.50
2017-11-26T21:14:46.049Z,3.50
2017-11-26T21:16:48.863Z,3.50
2017-11-26T21:18:51.626Z,3.40
2017-11-26T21:20:55.094Z,3.50
2017-11-26T21:22:57.833Z,3.50
2017-11-26T21:25:00.531Z,3.40
2017-11-26T21:27:04.035Z,3.30
2017-11-26T21:29:07.241Z,3.30
2017-11-26T21:31:10.044Z,3.30
2017-11-26T21:33:12.695Z,3.20
2017-11-26T21:35:15.370Z,3.30
2017-11-26T21:37:18.046Z,3.30
2017-11-26T21:39:20.983Z,3.20
2017-11-26T21:41:23.759Z,3.20
2017-11-26T21:43:26.862Z,3.20
2017-11-26T21:45:30.290Z,3.30
2017-11-26T21:47:32.964Z,3.30
2017-11-26T21:49:35.789Z,3.30
2017-11-26T21:51:39.232Z,3.30
2017-11-26T21:53:42.319Z,3.40
2017-11-26T21:55:45.202Z,3.40
2017-11-26T21:57:47.873Z,3.40
2017-11-26T21:59:50.671Z,3.50
2017-11-26T22:01:53.323Z,3.60
2017-11-26T22:03:55.984Z,3.60
2017-11-26T22:05:59.876Z,3.60
2017-11-26T22:08:03.611Z,3.70
2017-11-26T22:10:06.294Z,3.60
2017-11-26T22:12:08.996Z,3.60
2017-11-26T22:14:11.869Z,3.60
2017-11-26T22:16:14.660Z,3.60
2017-11-26T22:18:17.409Z,3.50
2017-11-26T22:20:20.304Z,3.40
2017-11-26T22:22:23.113Z,3.50
2017-11-26T22:24:25.906Z,3.60
2017-11-26T22:26:29.365Z,3.70
2017-11-26T22:28:32.128Z,3.70
2017-11-26T22:30:34.798Z,3.70
2017-11-26T22:32:37.462Z,3.80
2017-11-26T22:34:40.141Z,3.90
2017-11-26T22:36:42.816Z,3.90
2017-11-26T22:38:45.483Z,3.80
2017-11-26T22:40:48.136Z,3.80
2017-11-26T22:42:50.812Z,3.80
2017-11-26T22:44:54.479Z,3.70
2017-11-26T22:46:57.132Z,3.70
2017-11-26T22:48:59.791Z,3.70
2017-11-26T22:51:02.439Z,3.60
2017-11-26T22:53:05.904Z,3.60
2017-11-26T22:55:08.573Z,3.60
2017-11-26T22:57:11.241Z,3.60
2017-11-26T22:59:14.122Z,3.60
2017-11-26T23:01:16.786Z,3.60
2017-11-26T23:03:19.591Z,3.50
2017-11-26T23:05:22.305Z,3.40
2017-11-26T23:07:25.846Z,3.30
2017-11-26T23:09:28.613Z,3.30
2017-11-26T23:11:31.292Z,3.20
2017-11-26T23:13:33.944Z,3.20
2017-11-26T23:15:36.622Z,3.20
2017-11-26T23:17:39.301Z,3.20
2017-11-26T23:19:41.950Z,3.20
2017-11-26T23:21:44.668Z,3.20
2017-11-26T23:23:47.554Z,3.30
2017-11-26T23:25:50.211Z,3.40
2017-11-26T23:27:53.008Z,3.50
2017-11-26T23:29:55.796Z,3.50
2017-11-26T23:31:58.526Z,3.50
2017-11-26T23:34:01.991Z,3.50
2017-11-26T23:36:04.655Z,3.50
2017-11-26T23:38:07.317Z,3.60
2017-11-26T23:40:10.010Z,3.60
2017-11-26T23:42:12.777Z,3.60
2017-11-26T23:44:15.440Z,3.60
2017-11-26T23:46:18.339Z,3.60
2017-11-26T23:48:21.095Z,3.60
2017-11-26T23:50:23.755Z,3.60
2017-11-26T23:52:26.420Z,3.70
2017-11-26T23:54:29.876Z,3.70
2017-11-26T23:56:32.553Z,3.70
2017-11-26T23:58:35.208Z,3.70
